sensor_id;sensor_type;location;lat;lon;timestamp;P1;durP1;ratioP1;P2;durP2;ratioP2
49758;SDS011;70329;45.524;10.194;2023-07-29T00:04:08;11.10;;;5.13;;
49758;SDS011;70329;45.524;10.194;2023-07-29T00:06:34;12.50;;;4.70;;
49758;SDS011;70329;45.524;10.194;2023-07-29T00:09:00;15.05;;;5.30;;
49758;SDS011;70329;45.524;10.194;2023-07-29T00:13:50;8.00;;;4.73;;
49758;SDS011;70329;45.524;10.194;2023-07-29T00:16:16;10.93;;;4.97;;
49758;SDS011;70329;45.524;10.194;2023-07-29T00:21:08;11.93;;;4.75;;
49758;SDS011;70329;45.524;10.194;2023-07-29T00:23:33;13.40;;;4.73;;
49758;SDS011;70329;45.524;10.194;2023-07-29T00:28:23;10.82;;;4.80;;
49758;SDS011;70329;45.524;10.194;2023-07-29T00:30:49;11.02;;;5.07;;
49758;SDS011;70329;45.524;10.194;2023-07-29T00:33:14;8.55;;;4.93;;
49758;SDS011;70329;45.524;10.194;2023-07-29T00:35:39;8.82;;;5.00;;
49758;SDS011;70329;45.524;10.194;2023-07-29T00:38:05;9.38;;;4.95;;
49758;SDS011;70329;45.524;10.194;2023-07-29T00:40:30;11.80;;;5.20;;
49758;SDS011;70329;45.524;10.194;2023-07-29T00:43:00;10.63;;;5.18;;
49758;SDS011;70329;45.524;10.194;2023-07-29T00:45:25;11.10;;;5.07;;
49758;SDS011;70329;45.524;10.194;2023-07-29T00:47:53;9.45;;;4.95;;
49758;SDS011;70329;45.524;10.194;2023-07-29T00:50:19;12.32;;;5.03;;
49758;SDS011;70329;45.524;10.194;2023-07-29T00:52:45;11.90;;;5.20;;
49758;SDS011;70329;45.524;10.194;2023-07-29T00:55:11;15.02;;;5.13;;
49758;SDS011;70329;45.524;10.194;2023-07-29T00:57:36;10.75;;;4.82;;
49758;SDS011;70329;45.524;10.194;2023-07-29T01:00:02;7.80;;;4.85;;
49758;SDS011;70329;45.524;10.194;2023-07-29T01:02:29;11.18;;;5.20;;
49758;SDS011;70329;45.524;10.194;2023-07-29T01:04:57;10.93;;;4.82;;
49758;SDS011;70329;45.524;10.194;2023-07-29T01:07:26;12.50;;;5.32;;
49758;SDS011;70329;45.524;10.194;2023-07-29T01:10:09;8.75;;;4.55;;
49758;SDS011;70329;45.524;10.194;2023-07-29T01:18:23;10.43;;;4.97;;
49758;SDS011;70329;45.524;10.194;2023-07-29T01:20:56;15.13;;;5.18;;
49758;SDS011;70329;45.524;10.194;2023-07-29T01:23:24;9.80;;;5.07;;
49758;SDS011;70329;45.524;10.194;2023-07-29T01:25:51;10.00;;;5.07;;
49758;SDS011;70329;45.524;10.194;2023-07-29T01:28:16;10.23;;;5.03;;
49758;SDS011;70329;45.524;10.194;2023-07-29T01:30:42;10.80;;;4.93;;
49758;SDS011;70329;45.524;10.194;2023-07-29T01:33:20;13.63;;;5.40;;
49758;SDS011;70329;45.524;10.194;2023-07-29T01:36:01;8.55;;;4.63;;
49758;SDS011;70329;45.524;10.194;2023-07-29T01:38:29;7.85;;;5.18;;
49758;SDS011;70329;45.524;10.194;2023-07-29T01:41:02;9.98;;;5.22;;
49758;SDS011;70329;45.524;10.194;2023-07-29T01:43:29;9.75;;;4.72;;
49758;SDS011;70329;45.524;10.194;2023-07-29T01:45:55;12.57;;;5.25;;
49758;SDS011;70329;45.524;10.194;2023-07-29T01:48:20;12.50;;;4.90;;
49758;SDS011;70329;45.524;10.194;2023-07-29T01:50:46;9.07;;;4.47;;
49758;SDS011;70329;45.524;10.194;2023-07-29T01:53:12;8.80;;;4.53;;
49758;SDS011;70329;45.524;10.194;2023-07-29T01:55:37;7.53;;;4.75;;
49758;SDS011;70329;45.524;10.194;2023-07-29T01:58:03;9.38;;;4.95;;
49758;SDS011;70329;45.524;10.194;2023-07-29T02:00:28;7.43;;;5.03;;
49758;SDS011;70329;45.524;10.194;2023-07-29T02:02:54;7.60;;;4.73;;
49758;SDS011;70329;45.524;10.194;2023-07-29T02:05:19;9.27;;;4.63;;
49758;SDS011;70329;45.524;10.194;2023-07-29T02:07:45;9.70;;;4.78;;
49758;SDS011;70329;45.524;10.194;2023-07-29T02:10:10;11.40;;;4.72;;
49758;SDS011;70329;45.524;10.194;2023-07-29T02:12:35;10.30;;;4.97;;
49758;SDS011;70329;45.524;10.194;2023-07-29T02:15:01;9.67;;;4.77;;
49758;SDS011;70329;45.524;10.194;2023-07-29T02:17:26;10.73;;;5.10;;
49758;SDS011;70329;45.524;10.194;2023-07-29T02:19:51;11.30;;;4.78;;
49758;SDS011;70329;45.524;10.194;2023-07-29T02:22:17;13.70;;;5.10;;
49758;SDS011;70329;45.524;10.194;2023-07-29T02:24:43;10.43;;;4.70;;
49758;SDS011;70329;45.524;10.194;2023-07-29T02:27:09;9.07;;;4.60;;
49758;SDS011;70329;45.524;10.194;2023-07-29T02:29:35;8.38;;;4.85;;
49758;SDS011;70329;45.524;10.194;2023-07-29T02:34:27;10.30;;;5.03;;
49758;SDS011;70329;45.524;10.194;2023-07-29T02:36:52;7.55;;;4.78;;
49758;SDS011;70329;45.524;10.194;2023-07-29T02:39:17;10.23;;;5.43;;
49758;SDS011;70329;45.524;10.194;2023-07-29T02:41:43;9.13;;;5.55;;
49758;SDS011;70329;45.524;10.194;2023-07-29T02:44:08;10.40;;;5.18;;
49758;SDS011;70329;45.524;10.194;2023-07-29T02:46:34;11.63;;;4.90;;
49758;SDS011;70329;45.524;10.194;2023-07-29T02:48:59;13.47;;;5.30;;
49758;SDS011;70329;45.524;10.194;2023-07-29T02:51:24;11.83;;;4.97;;
49758;SDS011;70329;45.524;10.194;2023-07-29T02:53:50;10.43;;;4.53;;
49758;SDS011;70329;45.524;10.194;2023-07-29T02:56:15;8.30;;;5.27;;
49758;SDS011;70329;45.524;10.194;2023-07-29T02:58:40;12.83;;;4.90;;
49758;SDS011;70329;45.524;10.194;2023-07-29T03:01:06;9.60;;;5.47;;
49758;SDS011;70329;45.524;10.194;2023-07-29T03:03:31;9.93;;;4.93;;
49758;SDS011;70329;45.524;10.194;2023-07-29T03:08:33;9.32;;;4.63;;
49758;SDS011;70329;45.524;10.194;2023-07-29T03:13:30;10.75;;;4.95;;
49758;SDS011;70329;45.524;10.194;2023-07-29T03:16:03;7.73;;;4.70;;
49758;SDS011;70329;45.524;10.194;2023-07-29T03:18:39;9.95;;;4.32;;
49758;SDS011;70329;45.524;10.194;2023-07-29T03:21:06;12.45;;;5.05;;
49758;SDS011;70329;45.524;10.194;2023-07-29T03:23:32;9.18;;;4.78;;
49758;SDS011;70329;45.524;10.194;2023-07-29T03:28:25;10.27;;;5.10;;
49758;SDS011;70329;45.524;10.194;2023-07-29T03:30:51;13.20;;;4.93;;
49758;SDS011;70329;45.524;10.194;2023-07-29T03:33:16;8.85;;;5.30;;
49758;SDS011;70329;45.524;10.194;2023-07-29T03:35:42;12.30;;;5.33;;
49758;SDS011;70329;45.524;10.194;2023-07-29T03:38:09;9.95;;;4.90;;
49758;SDS011;70329;45.524;10.194;2023-07-29T03:40:36;10.52;;;5.10;;
49758;SDS011;70329;45.524;10.194;2023-07-29T03:43:01;14.63;;;4.50;;
49758;SDS011;70329;45.524;10.194;2023-07-29T03:45:26;10.77;;;4.60;;
49758;SDS011;70329;45.524;10.194;2023-07-29T03:47:52;9.35;;;4.75;;
49758;SDS011;70329;45.524;10.194;2023-07-29T03:50:17;9.98;;;4.35;;
49758;SDS011;70329;45.524;10.194;2023-07-29T03:52:42;12.87;;;5.07;;
49758;SDS011;70329;45.524;10.194;2023-07-29T03:55:08;10.05;;;5.20;;
49758;SDS011;70329;45.524;10.194;2023-07-29T03:57:34;10.13;;;4.78;;
49758;SDS011;70329;45.524;10.194;2023-07-29T03:59:59;9.47;;;4.77;;
49758;SDS011;70329;45.524;10.194;2023-07-29T04:02:24;9.25;;;4.90;;
49758;SDS011;70329;45.524;10.194;2023-07-29T04:04:50;8.90;;;5.20;;
49758;SDS011;70329;45.524;10.194;2023-07-29T04:07:15;9.87;;;4.97;;
49758;SDS011;70329;45.524;10.194;2023-07-29T04:09:40;9.95;;;4.88;;
49758;SDS011;70329;45.524;10.194;2023-07-29T04:12:08;12.88;;;4.80;;
49758;SDS011;70329;45.524;10.194;2023-07-29T04:14:33;7.57;;;4.80;;
49758;SDS011;70329;45.524;10.194;2023-07-29T04:16:58;9.70;;;4.60;;
49758;SDS011;70329;45.524;10.194;2023-07-29T04:19:24;12.38;;;5.05;;
49758;SDS011;70329;45.524;10.194;2023-07-29T04:21:49;10.57;;;5.13;;
49758;SDS011;70329;45.524;10.194;2023-07-29T04:26:41;10.07;;;4.28;;
49758;SDS011;70329;45.524;10.194;2023-07-29T04:29:06;9.83;;;4.37;;
49758;SDS011;70329;45.524;10.194;2023-07-29T04:31:32;9.07;;;4.50;;
49758;SDS011;70329;45.524;10.194;2023-07-29T04:33:57;9.03;;;5.03;;
49758;SDS011;70329;45.524;10.194;2023-07-29T04:36:22;14.73;;;4.88;;
49758;SDS011;70329;45.524;10.194;2023-07-29T04:38:48;8.60;;;4.20;;
49758;SDS011;70329;45.524;10.194;2023-07-29T04:41:13;8.82;;;4.50;;
49758;SDS011;70329;45.524;10.194;2023-07-29T04:43:38;9.83;;;4.60;;
49758;SDS011;70329;45.524;10.194;2023-07-29T04:46:07;10.77;;;4.53;;
49758;SDS011;70329;45.524;10.194;2023-07-29T04:48:33;9.07;;;4.57;;
49758;SDS011;70329;45.524;10.194;2023-07-29T04:50:58;8.45;;;4.95;;
49758;SDS011;70329;45.524;10.194;2023-07-29T04:53:24;7.73;;;4.50;;
49758;SDS011;70329;45.524;10.194;2023-07-29T04:55:49;10.63;;;4.90;;
49758;SDS011;70329;45.524;10.194;2023-07-29T04:58:15;13.00;;;5.10;;
49758;SDS011;70329;45.524;10.194;2023-07-29T05:00:40;9.33;;;4.90;;
49758;SDS011;70329;45.524;10.194;2023-07-29T05:03:05;10.88;;;4.88;;
49758;SDS011;70329;45.524;10.194;2023-07-29T05:05:31;8.98;;;4.80;;
49758;SDS011;70329;45.524;10.194;2023-07-29T05:07:57;12.23;;;4.82;;
49758;SDS011;70329;45.524;10.194;2023-07-29T05:10:22;18.23;;;5.30;;
49758;SDS011;70329;45.524;10.194;2023-07-29T05:12:47;14.00;;;5.00;;
49758;SDS011;70329;45.524;10.194;2023-07-29T05:15:13;14.57;;;5.00;;
49758;SDS011;70329;45.524;10.194;2023-07-29T05:17:39;9.35;;;4.70;;
49758;SDS011;70329;45.524;10.194;2023-07-29T05:20:04;8.43;;;4.93;;
49758;SDS011;70329;45.524;10.194;2023-07-29T05:22:30;8.10;;;4.70;;
49758;SDS011;70329;45.524;10.194;2023-07-29T05:24:56;11.37;;;4.60;;
49758;SDS011;70329;45.524;10.194;2023-07-29T05:27:21;11.85;;;5.05;;
49758;SDS011;70329;45.524;10.194;2023-07-29T05:29:46;10.07;;;5.40;;
49758;SDS011;70329;45.524;10.194;2023-07-29T05:32:12;8.43;;;5.20;;
49758;SDS011;70329;45.524;10.194;2023-07-29T05:34:37;14.57;;;5.63;;
49758;SDS011;70329;45.524;10.194;2023-07-29T05:37:02;8.48;;;5.50;;
49758;SDS011;70329;45.524;10.194;2023-07-29T05:39:28;9.40;;;4.90;;
49758;SDS011;70329;45.524;10.194;2023-07-29T05:41:53;7.50;;;4.35;;
49758;SDS011;70329;45.524;10.194;2023-07-29T05:44:19;8.00;;;4.57;;
49758;SDS011;70329;45.524;10.194;2023-07-29T05:46:45;10.45;;;4.95;;
49758;SDS011;70329;45.524;10.194;2023-07-29T05:49:10;7.47;;;4.68;;
49758;SDS011;70329;45.524;10.194;2023-07-29T05:51:36;9.15;;;4.50;;
49758;SDS011;70329;45.524;10.194;2023-07-29T05:56:26;11.80;;;4.82;;
49758;SDS011;70329;45.524;10.194;2023-07-29T06:01:17;11.97;;;4.70;;
49758;SDS011;70329;45.524;10.194;2023-07-29T06:06:08;10.83;;;4.80;;
49758;SDS011;70329;45.524;10.194;2023-07-29T06:10:59;10.20;;;4.20;;
49758;SDS011;70329;45.524;10.194;2023-07-29T06:13:25;9.57;;;3.83;;
49758;SDS011;70329;45.524;10.194;2023-07-29T06:15:50;8.07;;;4.30;;
49758;SDS011;70329;45.524;10.194;2023-07-29T06:18:16;8.15;;;4.07;;
49758;SDS011;70329;45.524;10.194;2023-07-29T06:20:41;7.65;;;4.38;;
49758;SDS011;70329;45.524;10.194;2023-07-29T06:23:08;8.70;;;4.07;;
49758;SDS011;70329;45.524;10.194;2023-07-29T06:25:33;9.20;;;4.18;;
49758;SDS011;70329;45.524;10.194;2023-07-29T06:27:58;9.15;;;4.00;;
49758;SDS011;70329;45.524;10.194;2023-07-29T06:30:24;13.00;;;3.58;;
49758;SDS011;70329;45.524;10.194;2023-07-29T06:32:49;12.40;;;4.15;;
49758;SDS011;70329;45.524;10.194;2023-07-29T06:35:14;21.58;;;5.18;;
49758;SDS011;70329;45.524;10.194;2023-07-29T06:37:40;9.52;;;4.85;;
49758;SDS011;70329;45.524;10.194;2023-07-29T06:40:05;9.13;;;4.70;;
49758;SDS011;70329;45.524;10.194;2023-07-29T06:42:31;14.20;;;5.07;;
49758;SDS011;70329;45.524;10.194;2023-07-29T06:44:56;11.65;;;4.57;;
49758;SDS011;70329;45.524;10.194;2023-07-29T06:47:22;10.23;;;4.60;;
49758;SDS011;70329;45.524;10.194;2023-07-29T06:49:47;10.55;;;5.00;;
49758;SDS011;70329;45.524;10.194;2023-07-29T06:52:13;11.27;;;4.30;;
49758;SDS011;70329;45.524;10.194;2023-07-29T06:54:38;10.68;;;4.75;;
49758;SDS011;70329;45.524;10.194;2023-07-29T06:57:03;13.68;;;5.00;;
49758;SDS011;70329;45.524;10.194;2023-07-29T06:59:29;12.00;;;4.70;;
49758;SDS011;70329;45.524;10.194;2023-07-29T07:01:54;12.00;;;4.80;;
49758;SDS011;70329;45.524;10.194;2023-07-29T07:04:20;11.18;;;5.40;;
49758;SDS011;70329;45.524;10.194;2023-07-29T07:06:48;9.70;;;4.50;;
49758;SDS011;70329;45.524;10.194;2023-07-29T07:09:13;10.38;;;4.80;;
49758;SDS011;70329;45.524;10.194;2023-07-29T07:11:39;11.77;;;5.60;;
49758;SDS011;70329;45.524;10.194;2023-07-29T07:14:04;11.05;;;4.68;;
49758;SDS011;70329;45.524;10.194;2023-07-29T07:16:29;12.57;;;5.18;;
49758;SDS011;70329;45.524;10.194;2023-07-29T07:18:55;12.63;;;5.72;;
49758;SDS011;70329;45.524;10.194;2023-07-29T07:21:21;13.30;;;6.75;;
49758;SDS011;70329;45.524;10.194;2023-07-29T07:23:48;10.27;;;5.88;;
49758;SDS011;70329;45.524;10.194;2023-07-29T07:26:14;12.20;;;6.20;;
49758;SDS011;70329;45.524;10.194;2023-07-29T07:28:40;12.63;;;5.95;;
49758;SDS011;70329;45.524;10.194;2023-07-29T07:33:31;13.20;;;6.15;;
49758;SDS011;70329;45.524;10.194;2023-07-29T07:38:21;14.43;;;6.65;;
49758;SDS011;70329;45.524;10.194;2023-07-29T07:40:53;13.30;;;6.85;;
49758;SDS011;70329;45.524;10.194;2023-07-29T07:43:20;19.08;;;7.20;;
49758;SDS011;70329;45.524;10.194;2023-07-29T07:45:45;16.23;;;7.30;;
49758;SDS011;70329;45.524;10.194;2023-07-29T07:50:38;16.33;;;7.70;;
49758;SDS011;70329;45.524;10.194;2023-07-29T07:55:30;17.87;;;7.10;;
49758;SDS011;70329;45.524;10.194;2023-07-29T07:57:55;12.90;;;6.15;;
49758;SDS011;70329;45.524;10.194;2023-07-29T08:00:21;21.90;;;8.23;;
49758;SDS011;70329;45.524;10.194;2023-07-29T08:02:46;12.68;;;7.60;;
49758;SDS011;70329;45.524;10.194;2023-07-29T08:07:37;15.23;;;7.28;;
49758;SDS011;70329;45.524;10.194;2023-07-29T08:10:02;18.58;;;8.35;;
49758;SDS011;70329;45.524;10.194;2023-07-29T08:14:53;16.42;;;7.82;;
49758;SDS011;70329;45.524;10.194;2023-07-29T08:17:18;24.27;;;8.93;;
49758;SDS011;70329;45.524;10.194;2023-07-29T08:19:44;16.05;;;8.27;;
49758;SDS011;70329;45.524;10.194;2023-07-29T08:22:09;18.25;;;9.32;;
49758;SDS011;70329;45.524;10.194;2023-07-29T08:27:00;24.48;;;9.82;;
49758;SDS011;70329;45.524;10.194;2023-07-29T08:29:25;15.90;;;8.18;;
49758;SDS011;70329;45.524;10.194;2023-07-29T08:31:51;22.60;;;8.35;;
49758;SDS011;70329;45.524;10.194;2023-07-29T08:34:16;17.42;;;7.43;;
49758;SDS011;70329;45.524;10.194;2023-07-29T08:36:42;17.35;;;7.80;;
49758;SDS011;70329;45.524;10.194;2023-07-29T08:39:07;13.30;;;7.40;;
49758;SDS011;70329;45.524;10.194;2023-07-29T08:41:37;15.80;;;7.50;;
49758;SDS011;70329;45.524;10.194;2023-07-29T08:44:09;13.60;;;6.25;;
49758;SDS011;70329;45.524;10.194;2023-07-29T08:46:37;12.75;;;7.40;;
49758;SDS011;70329;45.524;10.194;2023-07-29T08:49:04;15.70;;;7.28;;
49758;SDS011;70329;45.524;10.194;2023-07-29T08:51:30;11.90;;;6.70;;
49758;SDS011;70329;45.524;10.194;2023-07-29T08:53:56;14.27;;;6.55;;
49758;SDS011;70329;45.524;10.194;2023-07-29T08:56:24;15.40;;;7.18;;
49758;SDS011;70329;45.524;10.194;2023-07-29T08:58:49;16.80;;;6.78;;
49758;SDS011;70329;45.524;10.194;2023-07-29T09:01:15;21.05;;;8.27;;
49758;SDS011;70329;45.524;10.194;2023-07-29T09:03:41;12.68;;;6.15;;
49758;SDS011;70329;45.524;10.194;2023-07-29T09:06:07;13.35;;;6.78;;
49758;SDS011;70329;45.524;10.194;2023-07-29T09:08:33;12.68;;;6.97;;
49758;SDS011;70329;45.524;10.194;2023-07-29T09:10:59;12.25;;;6.70;;
49758;SDS011;70329;45.524;10.194;2023-07-29T09:13:25;13.63;;;7.13;;
49758;SDS011;70329;45.524;10.194;2023-07-29T09:15:53;13.50;;;6.85;;
49758;SDS011;70329;45.524;10.194;2023-07-29T09:18:21;12.02;;;5.60;;
49758;SDS011;70329;45.524;10.194;2023-07-29T09:20:47;11.38;;;5.80;;
49758;SDS011;70329;45.524;10.194;2023-07-29T09:23:14;18.33;;;6.63;;
49758;SDS011;70329;45.524;10.194;2023-07-29T09:25:39;12.50;;;7.40;;
49758;SDS011;70329;45.524;10.194;2023-07-29T09:28:09;18.60;;;8.18;;
49758;SDS011;70329;45.524;10.194;2023-07-29T09:30:45;11.27;;;7.32;;
49758;SDS011;70329;45.524;10.194;2023-07-29T09:33:11;15.23;;;7.95;;
49758;SDS011;70329;45.524;10.194;2023-07-29T09:35:37;18.25;;;8.88;;
49758;SDS011;70329;45.524;10.194;2023-07-29T09:38:06;14.20;;;8.07;;
49758;SDS011;70329;45.524;10.194;2023-07-29T09:40:36;11.98;;;7.00;;
49758;SDS011;70329;45.524;10.194;2023-07-29T09:43:02;17.73;;;7.93;;
49758;SDS011;70329;45.524;10.194;2023-07-29T09:45:28;13.13;;;6.55;;
49758;SDS011;70329;45.524;10.194;2023-07-29T09:47:54;13.65;;;6.72;;
49758;SDS011;70329;45.524;10.194;2023-07-29T09:50:26;11.32;;;6.72;;
49758;SDS011;70329;45.524;10.194;2023-07-29T09:52:52;14.07;;;6.53;;
49758;SDS011;70329;45.524;10.194;2023-07-29T09:55:22;15.07;;;6.03;;
49758;SDS011;70329;45.524;10.194;2023-07-29T09:57:59;9.60;;;5.40;;
49758;SDS011;70329;45.524;10.194;2023-07-29T10:00:30;12.55;;;5.30;;
49758;SDS011;70329;45.524;10.194;2023-07-29T10:02:57;10.82;;;5.18;;
49758;SDS011;70329;45.524;10.194;2023-07-29T10:05:25;7.95;;;4.55;;
49758;SDS011;70329;45.524;10.194;2023-07-29T10:07:51;13.40;;;5.30;;
49758;SDS011;70329;45.524;10.194;2023-07-29T10:10:18;11.85;;;4.80;;
49758;SDS011;70329;45.524;10.194;2023-07-29T10:12:48;14.82;;;7.18;;
49758;SDS011;70329;45.524;10.194;2023-07-29T10:15:15;12.23;;;5.40;;
49758;SDS011;70329;45.524;10.194;2023-07-29T10:17:40;9.98;;;5.43;;
49758;SDS011;70329;45.524;10.194;2023-07-29T10:20:07;12.55;;;5.78;;
49758;SDS011;70329;45.524;10.194;2023-07-29T10:22:38;13.77;;;6.30;;
49758;SDS011;70329;45.524;10.194;2023-07-29T10:25:17;14.07;;;6.60;;
49758;SDS011;70329;45.524;10.194;2023-07-29T10:30:29;9.68;;;5.18;;
49758;SDS011;70329;45.524;10.194;2023-07-29T10:32:57;7.97;;;3.38;;
49758;SDS011;70329;45.524;10.194;2023-07-29T10:35:24;10.13;;;3.75;;
49758;SDS011;70329;45.524;10.194;2023-07-29T10:37:50;7.63;;;3.28;;
49758;SDS011;70329;45.524;10.194;2023-07-29T10:40:18;9.77;;;3.63;;
49758;SDS011;70329;45.524;10.194;2023-07-29T10:45:28;7.97;;;3.95;;
49758;SDS011;70329;45.524;10.194;2023-07-29T10:48:09;9.57;;;3.97;;
49758;SDS011;70329;45.524;10.194;2023-07-29T10:50:37;8.63;;;3.70;;
49758;SDS011;70329;45.524;10.194;2023-07-29T10:53:05;8.63;;;3.88;;
49758;SDS011;70329;45.524;10.194;2023-07-29T10:55:37;14.43;;;4.00;;
49758;SDS011;70329;45.524;10.194;2023-07-29T10:58:13;9.40;;;3.40;;
49758;SDS011;70329;45.524;10.194;2023-07-29T11:00:43;8.15;;;3.65;;
49758;SDS011;70329;45.524;10.194;2023-07-29T11:03:12;7.95;;;3.05;;
49758;SDS011;70329;45.524;10.194;2023-07-29T11:05:46;9.60;;;3.67;;
49758;SDS011;70329;45.524;10.194;2023-07-29T11:08:30;8.57;;;3.60;;
49758;SDS011;70329;45.524;10.194;2023-07-29T11:11:03;9.27;;;4.55;;
49758;SDS011;70329;45.524;10.194;2023-07-29T11:13:41;10.18;;;4.40;;
49758;SDS011;70329;45.524;10.194;2023-07-29T11:16:09;7.93;;;4.80;;
49758;SDS011;70329;45.524;10.194;2023-07-29T11:18:47;7.65;;;5.10;;
49758;SDS011;70329;45.524;10.194;2023-07-29T11:21:17;8.30;;;4.88;;
49758;SDS011;70329;45.524;10.194;2023-07-29T11:23:44;11.57;;;5.15;;
49758;SDS011;70329;45.524;10.194;2023-07-29T11:26:10;12.57;;;4.90;;
49758;SDS011;70329;45.524;10.194;2023-07-29T11:28:39;12.10;;;4.85;;
49758;SDS011;70329;45.524;10.194;2023-07-29T11:31:06;8.10;;;4.15;;
49758;SDS011;70329;45.524;10.194;2023-07-29T11:33:31;10.85;;;4.65;;
49758;SDS011;70329;45.524;10.194;2023-07-29T11:35:58;10.45;;;4.90;;
49758;SDS011;70329;45.524;10.194;2023-07-29T11:38:25;14.20;;;4.68;;
49758;SDS011;70329;45.524;10.194;2023-07-29T11:40:56;9.27;;;4.55;;
49758;SDS011;70329;45.524;10.194;2023-07-29T11:43:23;11.00;;;5.35;;
49758;SDS011;70329;45.524;10.194;2023-07-29T11:45:49;10.55;;;4.45;;
49758;SDS011;70329;45.524;10.194;2023-07-29T11:48:14;7.20;;;4.32;;
49758;SDS011;70329;45.524;10.194;2023-07-29T11:50:40;8.27;;;4.38;;
49758;SDS011;70329;45.524;10.194;2023-07-29T11:53:05;10.15;;;4.47;;
49758;SDS011;70329;45.524;10.194;2023-07-29T11:55:30;10.13;;;3.70;;
49758;SDS011;70329;45.524;10.194;2023-07-29T11:57:58;9.90;;;3.90;;
49758;SDS011;70329;45.524;10.194;2023-07-29T12:00:31;11.45;;;5.30;;
49758;SDS011;70329;45.524;10.194;2023-07-29T12:02:58;11.10;;;4.78;;
49758;SDS011;70329;45.524;10.194;2023-07-29T12:05:25;12.63;;;4.82;;
49758;SDS011;70329;45.524;10.194;2023-07-29T12:07:52;8.82;;;4.18;;
49758;SDS011;70329;45.524;10.194;2023-07-29T12:10:20;11.23;;;4.97;;
49758;SDS011;70329;45.524;10.194;2023-07-29T12:12:47;8.40;;;4.40;;
49758;SDS011;70329;45.524;10.194;2023-07-29T12:15:22;11.32;;;4.13;;
49758;SDS011;70329;45.524;10.194;2023-07-29T12:17:48;11.38;;;4.82;;
49758;SDS011;70329;45.524;10.194;2023-07-29T12:20:14;6.95;;;3.70;;
49758;SDS011;70329;45.524;10.194;2023-07-29T12:22:39;10.80;;;5.07;;
49758;SDS011;70329;45.524;10.194;2023-07-29T12:25:05;8.38;;;4.10;;
49758;SDS011;70329;45.524;10.194;2023-07-29T12:27:31;10.50;;;4.53;;
49758;SDS011;70329;45.524;10.194;2023-07-29T12:29:57;10.27;;;4.50;;
49758;SDS011;70329;45.524;10.194;2023-07-29T12:32:24;9.40;;;4.53;;
49758;SDS011;70329;45.524;10.194;2023-07-29T12:34:52;14.68;;;4.78;;
49758;SDS011;70329;45.524;10.194;2023-07-29T12:37:18;8.63;;;3.97;;
49758;SDS011;70329;45.524;10.194;2023-07-29T12:39:44;8.90;;;4.72;;
49758;SDS011;70329;45.524;10.194;2023-07-29T12:42:09;8.55;;;4.45;;
49758;SDS011;70329;45.524;10.194;2023-07-29T12:44:35;8.43;;;3.78;;
49758;SDS011;70329;45.524;10.194;2023-07-29T12:47:02;9.50;;;4.15;;
49758;SDS011;70329;45.524;10.194;2023-07-29T12:49:29;13.32;;;4.38;;
49758;SDS011;70329;45.524;10.194;2023-07-29T12:51:56;9.40;;;4.65;;
49758;SDS011;70329;45.524;10.194;2023-07-29T12:54:21;7.53;;;4.40;;
49758;SDS011;70329;45.524;10.194;2023-07-29T12:56:47;9.32;;;4.93;;
49758;SDS011;70329;45.524;10.194;2023-07-29T12:59:12;7.95;;;4.15;;
49758;SDS011;70329;45.524;10.194;2023-07-29T13:01:37;9.02;;;4.20;;
49758;SDS011;70329;45.524;10.194;2023-07-29T13:04:03;8.70;;;3.70;;
49758;SDS011;70329;45.524;10.194;2023-07-29T13:06:28;7.35;;;3.70;;
49758;SDS011;70329;45.524;10.194;2023-07-29T13:08:54;9.30;;;3.85;;
49758;SDS011;70329;45.524;10.194;2023-07-29T13:11:19;8.73;;;3.95;;
49758;SDS011;70329;45.524;10.194;2023-07-29T13:13:44;9.38;;;3.90;;
49758;SDS011;70329;45.524;10.194;2023-07-29T13:16:10;5.25;;;3.38;;
49758;SDS011;70329;45.524;10.194;2023-07-29T13:18:36;11.52;;;4.22;;
49758;SDS011;70329;45.524;10.194;2023-07-29T13:21:01;11.18;;;4.07;;
49758;SDS011;70329;45.524;10.194;2023-07-29T13:23:27;6.72;;;3.92;;
49758;SDS011;70329;45.524;10.194;2023-07-29T13:25:54;7.80;;;3.72;;
49758;SDS011;70329;45.524;10.194;2023-07-29T13:28:20;9.30;;;3.90;;
49758;SDS011;70329;45.524;10.194;2023-07-29T13:30:45;12.43;;;3.97;;
49758;SDS011;70329;45.524;10.194;2023-07-29T13:33:10;7.20;;;3.90;;
49758;SDS011;70329;45.524;10.194;2023-07-29T13:35:36;9.98;;;3.50;;
49758;SDS011;70329;45.524;10.194;2023-07-29T13:38:02;22.50;;;3.67;;
49758;SDS011;70329;45.524;10.194;2023-07-29T13:40:27;7.05;;;3.55;;
49758;SDS011;70329;45.524;10.194;2023-07-29T13:42:53;7.10;;;3.42;;
49758;SDS011;70329;45.524;10.194;2023-07-29T13:45:19;6.85;;;3.55;;
49758;SDS011;70329;45.524;10.194;2023-07-29T13:47:45;6.95;;;3.88;;
49758;SDS011;70329;45.524;10.194;2023-07-29T13:50:10;9.57;;;4.30;;
49758;SDS011;70329;45.524;10.194;2023-07-29T13:52:36;7.97;;;4.20;;
49758;SDS011;70329;45.524;10.194;2023-07-29T13:55:03;8.05;;;3.58;;
49758;SDS011;70329;45.524;10.194;2023-07-29T13:57:29;11.38;;;4.00;;
49758;SDS011;70329;45.524;10.194;2023-07-29T13:59:55;7.82;;;4.28;;
49758;SDS011;70329;45.524;10.194;2023-07-29T14:02:20;14.15;;;4.15;;
49758;SDS011;70329;45.524;10.194;2023-07-29T14:04:45;7.80;;;3.67;;
49758;SDS011;70329;45.524;10.194;2023-07-29T14:07:11;12.20;;;4.38;;
49758;SDS011;70329;45.524;10.194;2023-07-29T14:09:36;10.27;;;4.72;;
49758;SDS011;70329;45.524;10.194;2023-07-29T14:12:03;10.30;;;3.83;;
49758;SDS011;70329;45.524;10.194;2023-07-29T14:14:29;12.38;;;4.50;;
49758;SDS011;70329;45.524;10.194;2023-07-29T14:16:54;6.47;;;3.63;;
49758;SDS011;70329;45.524;10.194;2023-07-29T14:19:20;9.60;;;3.88;;
49758;SDS011;70329;45.524;10.194;2023-07-29T14:21:45;6.90;;;3.67;;
49758;SDS011;70329;45.524;10.194;2023-07-29T14:24:11;10.20;;;4.22;;
49758;SDS011;70329;45.524;10.194;2023-07-29T14:26:36;7.03;;;3.58;;
49758;SDS011;70329;45.524;10.194;2023-07-29T14:29:01;6.03;;;3.70;;
49758;SDS011;70329;45.524;10.194;2023-07-29T14:31:27;7.63;;;4.00;;
49758;SDS011;70329;45.524;10.194;2023-07-29T14:33:52;7.03;;;3.35;;
49758;SDS011;70329;45.524;10.194;2023-07-29T14:36:17;7.10;;;3.65;;
49758;SDS011;70329;45.524;10.194;2023-07-29T14:38:43;7.70;;;3.70;;
49758;SDS011;70329;45.524;10.194;2023-07-29T14:41:08;10.35;;;4.20;;
49758;SDS011;70329;45.524;10.194;2023-07-29T14:43:34;8.88;;;4.35;;
49758;SDS011;70329;45.524;10.194;2023-07-29T14:46:00;9.55;;;4.72;;
49758;SDS011;70329;45.524;10.194;2023-07-29T14:48:26;12.25;;;4.38;;
49758;SDS011;70329;45.524;10.194;2023-07-29T14:50:51;7.05;;;3.42;;
49758;SDS011;70329;45.524;10.194;2023-07-29T14:53:17;13.38;;;6.65;;
49758;SDS011;70329;45.524;10.194;2023-07-29T14:55:42;9.65;;;3.80;;
49758;SDS011;70329;45.524;10.194;2023-07-29T14:58:07;12.52;;;3.95;;
49758;SDS011;70329;45.524;10.194;2023-07-29T15:00:33;8.95;;;4.45;;
49758;SDS011;70329;45.524;10.194;2023-07-29T15:02:58;7.53;;;4.03;;
49758;SDS011;70329;45.524;10.194;2023-07-29T15:05:24;16.05;;;3.90;;
49758;SDS011;70329;45.524;10.194;2023-07-29T15:07:49;7.82;;;4.90;;
49758;SDS011;70329;45.524;10.194;2023-07-29T15:10:15;8.63;;;3.92;;
49758;SDS011;70329;45.524;10.194;2023-07-29T15:12:41;13.15;;;4.18;;
49758;SDS011;70329;45.524;10.194;2023-07-29T15:15:07;7.25;;;3.97;;
49758;SDS011;70329;45.524;10.194;2023-07-29T15:17:33;11.23;;;3.85;;
49758;SDS011;70329;45.524;10.194;2023-07-29T15:19:58;9.57;;;4.05;;
49758;SDS011;70329;45.524;10.194;2023-07-29T15:22:23;9.73;;;4.35;;
49758;SDS011;70329;45.524;10.194;2023-07-29T15:24:49;8.68;;;4.53;;